Time;durP1;ratioP1;P1;durP2;ratioP2;P2;SDS_P1;SDS_P2;PMS_P1;PMS_P2;Temp;Humidity;BMP_temperature;BMP_pressure;BME280_temperature;BME280_humidity;BME280_pressure;Samples;Min_cycle;Max_cycle;Signal;HPM_P1;HPM_P2
2023/08/07 00:00:05;;;;;;;0.00;0.00;;;14.40;99.90;;;;;;5054308;28;20372;-73
2023/08/07 00:02:31;;;;;;;2.75;1.48;;;14.40;99.90;;;;;;5054098;28;20045;-74
2023/08/07 00:04:57;;;;;;;0.30;0.15;;;14.30;99.90;;;;;;5054141;28;20062;-73
2023/08/07 00:07:25;;;;;;;0.10;0.10;;;14.40;99.90;;;;;;5054118;28;20032;-74
2023/08/07 00:09:51;;;;;;;4.63;2.35;;;14.50;99.90;;;;;;5053589;28;20021;-74
2023/08/07 00:12:17;;;;;;;0.10;0.10;;;14.40;99.90;;;;;;5054105;28;20085;-74
2023/08/07 00:14:43;;;;;;;0.10;0.10;;;14.30;99.90;;;;;;5053728;28;20032;-74
2023/08/07 00:17:08;;;;;;;0.32;0.32;;;14.40;99.90;;;;;;5054072;28;20066;-74
2023/08/07 00:19:34;;;;;;;15.88;0.88;;;14.40;99.90;;;;;;5053650;28;20044;-74
2023/08/07 00:22:00;;;;;;;0.00;0.00;;;14.40;99.90;;;;;;5053447;28;20121;-74
2023/08/07 00:24:26;;;;;;;3.50;0.98;;;14.40;99.90;;;;;;5053354;28;20029;-74
2023/08/07 00:26:52;;;;;;;0.57;0.57;;;14.30;99.90;;;;;;5053697;28;20057;-74
2023/08/07 00:29:19;;;;;;;0.10;0.10;;;14.30;99.90;;;;;;5035579;28;20499;-74
2023/08/07 00:31:45;;;;;;;18.75;1.55;;;14.40;99.90;;;;;;5036102;28;20025;-74
2023/08/07 00:34:10;;;;;;;0.15;0.15;;;14.30;99.90;;;;;;5035421;28;20021;-74
2023/08/07 00:36:36;;;;;;;12.15;0.80;;;14.40;99.90;;;;;;5053499;28;20033;-74
2023/08/07 00:39:06;;;;;;;0.70;0.70;;;14.30;99.90;;;;;;5035371;28;20020;-74
2023/08/07 00:41:31;;;;;;;0.10;0.10;;;14.30;99.90;;;;;;5053410;28;20059;-74
2023/08/07 00:43:57;;;;;;;2.95;0.68;;;14.30;99.90;;;;;;5053183;28;20518;-74
2023/08/07 00:46:24;;;;;;;0.30;0.30;;;14.40;99.90;;;;;;5035562;28;20033;-74
2023/08/07 00:48:52;;;;;;;2.42;1.02;;;14.30;99.90;;;;;;5035317;28;20060;-74
2023/08/07 00:51:17;;;;;;;3.90;1.20;;;14.30;99.90;;;;;;5035733;28;20047;-74
2023/08/07 00:53:43;;;;;;;5.47;1.58;;;14.30;99.90;;;;;;5034703;28;20108;-74
2023/08/07 00:56:09;;;;;;;0.40;0.30;;;14.30;99.90;;;;;;5015597;28;20040;-74
2023/08/07 00:58:36;;;;;;;12.95;1.45;;;14.30;99.90;;;;;;5028863;28;20025;-74
2023/08/07 01:01:02;;;;;;;0.20;0.20;;;14.30;99.90;;;;;;5052839;28;20473;-74
2023/08/07 01:03:28;;;;;;;0.10;0.10;;;14.30;99.90;;;;;;5035089;28;20481;-74
2023/08/07 01:05:54;;;;;;;0.20;0.20;;;14.30;99.90;;;;;;5052841;28;20050;-74
2023/08/07 01:08:20;;;;;;;0.88;0.80;;;14.40;99.90;;;;;;5052702;28;20397;-74
2023/08/07 01:11:26;;;;;;;0.20;0.20;;;14.40;99.90;;;;;;5034911;28;20024;-73
2023/08/07 01:14:10;;;;;;;1.45;0.45;;;14.30;99.90;;;;;;5035058;28;20029;-74
2023/08/07 01:16:55;;;;;;;0.65;0.43;;;14.30;99.90;;;;;;5052508;28;20066;-74
2023/08/07 01:19:28;;;;;;;2.28;1.55;;;14.40;99.90;;;;;;5052765;28;20472;-74
2023/08/07 01:22:14;;;;;;;1.35;0.32;;;14.30;99.90;;;;;;5034207;28;20069;-74
2023/08/07 01:24:50;;;;;;;0.00;0.00;;;14.30;99.90;;;;;;5052606;28;20029;-74
2023/08/07 01:27:19;;;;;;;5.68;0.38;;;14.30;99.90;;;;;;5035007;28;20060;-74
2023/08/07 01:30:19;;;;;;;0.55;0.40;;;14.30;99.90;;;;;;5052479;28;20087;-74
2023/08/07 01:32:55;;;;;;;3.30;0.52;;;14.30;99.90;;;;;;5052823;28;20064;-74
2023/08/07 01:35:26;;;;;;;2.33;0.75;;;14.40;99.90;;;;;;5034208;28;20025;-73
2023/08/07 01:37:54;;;;;;;0.17;0.17;;;14.40;99.90;;;;;;5018423;28;20122;-74
2023/08/07 01:40:21;;;;;;;0.20;0.20;;;14.30;99.90;;;;;;5035985;28;20265;-74
2023/08/07 01:42:47;;;;;;;0.85;0.65;;;14.30;99.90;;;;;;5052700;28;20036;-74
2023/08/07 01:45:13;;;;;;;0.52;0.52;;;14.20;99.90;;;;;;5034424;28;20033;-74
2023/08/07 01:47:39;;;;;;;0.20;0.20;;;14.20;99.90;;;;;;5052694;28;20036;-74
2023/08/07 01:50:06;;;;;;;0.38;0.38;;;14.20;99.90;;;;;;5034334;28;20036;-74
2023/08/07 01:52:32;;;;;;;1.27;1.05;;;14.10;99.90;;;;;;5052425;28;20103;-74
2023/08/07 01:54:58;;;;;;;0.20;0.20;;;14.10;99.90;;;;;;5034851;28;20040;-74
2023/08/07 01:57:24;;;;;;;0.00;0.00;;;14.10;99.90;;;;;;5052424;28;20093;-74
2023/08/07 01:59:49;;;;;;;2.05;0.80;;;14.10;99.90;;;;;;5034694;28;20033;-74
2023/08/07 02:02:15;;;;;;;6.28;1.00;;;14.00;99.90;;;;;;5017939;28;20083;-74
2023/08/07 02:04:41;;;;;;;2.17;0.55;;;14.00;99.90;;;;;;5034098;28;20020;-75
2023/08/07 02:07:07;;;;;;;5.80;0.98;;;14.00;99.90;;;;;;5032279;28;20075;-74
2023/08/07 02:09:33;;;;;;;0.20;0.20;;;14.10;99.90;;;;;;5034286;28;20090;-74
2023/08/07 02:11:59;;;;;;;7.43;0.65;;;14.10;99.90;;;;;;5038046;28;20040;-74
2023/08/07 02:14:26;;;;;;;1.15;0.75;;;14.10;99.90;;;;;;5038347;28;20048;-74
2023/08/07 02:16:51;;;;;;;0.95;0.95;;;14.10;99.90;;;;;;5038276;28;20099;-74
2023/08/07 02:19:17;;;;;;;0.90;0.47;;;14.10;99.90;;;;;;5037802;28;20063;-74
2023/08/07 02:21:43;;;;;;;0.00;0.00;;;14.10;99.90;;;;;;5055753;28;20032;-74
2023/08/07 02:24:09;;;;;;;2.90;1.85;;;14.00;99.90;;;;;;5037890;28;20045;-75
2023/08/07 02:26:35;;;;;;;0.00;0.00;;;14.10;99.90;;;;;;5056007;28;20021;-74
2023/08/07 02:29:02;;;;;;;0.10;0.10;;;14.10;99.90;;;;;;5055987;28;20021;-74
2023/08/07 02:31:28;;;;;;;0.80;0.50;;;14.10;99.90;;;;;;5055601;28;20083;-74
2023/08/07 02:33:54;;;;;;;4.78;0.88;;;14.00;99.90;;;;;;5037700;28;20025;-74
2023/08/07 02:36:20;;;;;;;0.80;0.38;;;14.00;99.90;;;;;;5021284;28;20029;-74
2023/08/07 02:38:46;;;;;;;3.30;0.57;;;14.00;99.90;;;;;;5056038;28;20017;-74
2023/08/07 02:41:12;;;;;;;0.10;0.10;;;13.90;99.90;;;;;;5055375;28;20037;-74
2023/08/07 02:43:38;;;;;;;0.20;0.20;;;14.10;99.90;;;;;;5055882;28;20389;-74
2023/08/07 02:46:04;;;;;;;0.90;0.38;;;14.10;99.90;;;;;;5055680;28;20032;-74
2023/08/07 02:48:31;;;;;;;0.30;0.30;;;14.10;99.90;;;;;;5037396;28;20025;-74
2023/08/07 02:50:56;;;;;;;0.03;0.03;;;14.20;99.90;;;;;;5055527;28;20104;-74
2023/08/07 02:53:22;;;;;;;1.38;0.65;;;14.30;99.90;;;;;;5055466;28;20029;-73
2023/08/07 02:55:48;;;;;;;0.32;0.32;;;14.30;99.90;;;;;;5037775;28;20029;-75
2023/08/07 02:58:14;;;;;;;1.85;0.85;;;14.40;99.90;;;;;;5040213;28;20051;-75
2023/08/07 03:00:40;;;;;;;0.10;0.10;;;14.40;99.90;;;;;;5048396;28;20473;-76
2023/08/07 03:03:06;;;;;;;0.35;0.35;;;14.40;99.90;;;;;;5049083;28;20031;-75
2023/08/07 03:05:32;;;;;;;0.10;0.10;;;14.50;99.90;;;;;;5038382;28;20444;-74
2023/08/07 03:07:58;;;;;;;2.30;0.90;;;14.60;99.90;;;;;;5061284;28;20092;-75
2023/08/07 03:10:23;;;;;;;0.00;0.00;;;14.60;99.90;;;;;;5037366;28;20110;-74
2023/08/07 03:12:49;;;;;;;0.20;0.20;;;14.60;99.90;;;;;;5055128;28;20021;-74
2023/08/07 03:15:15;;;;;;;0.32;0.32;;;14.60;99.90;;;;;;5061380;28;20052;-76
2023/08/07 03:17:41;;;;;;;0.38;0.38;;;14.60;99.90;;;;;;5053923;28;20112;-76
2023/08/07 03:20:08;;;;;;;1.85;0.82;;;14.60;99.90;;;;;;5038153;28;20108;-76
2023/08/07 03:22:34;;;;;;;6.35;1.60;;;14.60;99.90;;;;;;5032075;28;20049;-74
2023/08/07 03:25:00;;;;;;;0.20;0.10;;;14.60;99.90;;;;;;5018069;28;20021;-74
2023/08/07 03:27:26;;;;;;;7.07;0.50;;;14.60;99.90;;;;;;5036502;28;20037;-75
2023/08/07 03:29:51;;;;;;;3.08;0.85;;;14.60;99.90;;;;;;5036846;28;20542;-74
2023/08/07 03:32:18;;;;;;;0.03;0.03;;;14.60;99.90;;;;;;5042526;28;20028;-74
2023/08/07 03:34:44;;;;;;;0.00;0.00;;;14.60;99.90;;;;;;5020376;28;20088;-76
2023/08/07 03:37:12;;;;;;;0.13;0.13;;;14.60;99.90;;;;;;5036765;28;20037;-76
2023/08/07 03:39:37;;;;;;;0.40;0.40;;;14.60;99.90;;;;;;5036620;28;20025;-75
2023/08/07 03:42:04;;;;;;;0.20;0.20;;;14.60;99.90;;;;;;5026974;28;20045;-74
2023/08/07 03:44:30;;;;;;;15.98;7.97;;;14.60;99.90;;;;;;5036251;28;20029;-76
2023/08/07 03:46:57;;;;;;;0.55;0.50;;;14.60;99.90;;;;;;5036411;28;20559;-76
2023/08/07 03:49:24;;;;;;;0.30;0.20;;;14.60;99.90;;;;;;5036227;28;20021;-74
2023/08/07 03:51:51;;;;;;;0.38;0.32;;;14.60;99.90;;;;;;5036329;28;20472;-75
2023/08/07 03:54:17;;;;;;;0.10;0.10;;;14.60;99.90;;;;;;5035917;28;20028;-74
2023/08/07 03:56:43;;;;;;;3.65;2.33;;;14.70;99.90;;;;;;5036186;28;20025;-75
2023/08/07 03:59:09;;;;;;;0.47;0.22;;;14.70;99.90;;;;;;5036334;28;20032;-76
2023/08/07 04:01:34;;;;;;;10.40;1.27;;;14.70;99.90;;;;;;5053446;28;20108;-75
2023/08/07 04:04:00;;;;;;;0.17;0.17;;;14.60;99.90;;;;;;5035754;28;20021;-74
2023/08/07 04:06:26;;;;;;;0.10;0.10;;;14.60;99.90;;;;;;5040835;28;20032;-74
2023/08/07 04:08:52;;;;;;;0.10;0.10;;;14.70;99.90;;;;;;5053790;28;20029;-74
2023/08/07 04:11:18;;;;;;;0.10;0.10;;;14.70;99.90;;;;;;5053972;28;20496;-74
2023/08/07 04:13:44;;;;;;;0.28;0.13;;;14.80;99.90;;;;;;5053610;28;20074;-74
2023/08/07 04:16:10;;;;;;;1.05;0.70;;;14.70;99.90;;;;;;5035535;28;20070;-73
2023/08/07 04:18:36;;;;;;;0.10;0.10;;;14.70;99.90;;;;;;5035980;28;20374;-75
2023/08/07 04:21:03;;;;;;;1.08;0.65;;;14.70;99.90;;;;;;5053383;28;20040;-74
2023/08/07 04:23:29;;;;;;;2.08;1.88;;;14.70;99.90;;;;;;5018901;28;20458;-75
2023/08/07 04:25:55;;;;;;;0.65;0.43;;;14.60;99.90;;;;;;5035116;28;20025;-76
2023/08/07 04:28:21;;;;;;;0.10;0.10;;;14.50;99.90;;;;;;5019176;28;20028;-75
2023/08/07 04:30:53;;;;;;;2.17;0.43;;;14.50;99.90;;;;;;5035120;28;20408;-75
2023/08/07 04:33:20;;;;;;;0.00;0.00;;;14.40;99.90;;;;;;5053081;28;20536;-76
2023/08/07 04:35:46;;;;;;;0.00;0.00;;;14.40;99.90;;;;;;5053289;28;20025;-76
2023/08/07 04:38:17;;;;;;;0.00;0.00;;;14.40;99.90;;;;;;5035579;28;20029;-75
2023/08/07 04:40:49;;;;;;;12.07;1.17;;;14.30;99.90;;;;;;5053193;28;20047;-76
2023/08/07 04:43:16;;;;;;;0.20;0.20;;;14.40;99.90;;;;;;5035481;28;20048;-74
2023/08/07 04:45:44;;;;;;;0.20;0.15;;;14.30;99.90;;;;;;5053146;28;20029;-74
2023/08/07 04:48:11;;;;;;;0.30;0.30;;;14.30;99.90;;;;;;5053164;28;20021;-74
2023/08/07 04:50:37;;;;;;;0.35;0.35;;;14.20;99.90;;;;;;5035394;28;20032;-74
2023/08/07 04:53:04;;;;;;;1.08;0.95;;;14.20;99.90;;;;;;5035331;28;20021;-74
2023/08/07 04:55:31;;;;;;;0.60;0.47;;;14.10;99.90;;;;;;5053053;28;20025;-74
2023/08/07 04:57:57;;;;;;;1.10;0.70;;;14.10;99.90;;;;;;5035296;28;20017;-75
2023/08/07 05:00:24;;;;;;;0.10;0.10;;;14.20;99.90;;;;;;5052521;28;20111;-76
2023/08/07 05:02:50;;;;;;;0.57;0.30;;;14.20;99.90;;;;;;5046616;28;20032;-74
2023/08/07 05:05:17;;;;;;;0.10;0.10;;;14.20;99.90;;;;;;5052500;28;20029;-74
2023/08/07 05:07:42;;;;;;;0.05;0.05;;;14.20;99.90;;;;;;5051978;28;20380;-75
2023/08/07 05:10:09;;;;;;;0.52;0.52;;;14.20;99.90;;;;;;5052733;28;20029;-75
2023/08/07 05:12:35;;;;;;;7.90;1.95;;;14.20;99.90;;;;;;5052493;28;20401;-75
2023/08/07 05:15:02;;;;;;;1.17;1.08;;;14.10;99.90;;;;;;5061365;28;20032;-74
2023/08/07 05:17:27;;;;;;;0.00;0.00;;;14.30;99.90;;;;;;5054813;28;20973;-74
2023/08/07 05:19:53;;;;;;;0.50;0.50;;;14.20;99.90;;;;;;5034877;28;20064;-75
2023/08/07 05:22:19;;;;;;;0.45;0.45;;;14.20;99.90;;;;;;5052308;28;20110;-74
2023/08/07 05:24:45;;;;;;;0.17;0.17;;;14.20;99.90;;;;;;5052670;28;20033;-76
2023/08/07 05:27:11;;;;;;;0.85;0.82;;;14.40;99.90;;;;;;5052251;28;20035;-76
2023/08/07 05:29:43;;;;;;;0.00;0.00;;;14.30;99.90;;;;;;5035080;28;20025;-75
2023/08/07 05:32:13;;;;;;;0.00;0.00;;;14.60;99.90;;;;;;5035072;28;20481;-74
2023/08/07 05:34:39;;;;;;;0.03;0.03;;;14.50;99.90;;;;;;5052567;28;20479;-75
2023/08/07 05:37:06;;;;;;;0.30;0.20;;;14.50;99.90;;;;;;5035026;28;20381;-77
2023/08/07 05:39:32;;;;;;;3.10;0.52;;;14.50;99.90;;;;;;5052542;28;20036;-75
2023/08/07 05:41:58;;;;;;;0.10;0.10;;;14.70;99.90;;;;;;5052584;28;20449;-76
2023/08/07 05:44:25;;;;;;;0.65;0.65;;;14.70;99.90;;;;;;5034359;28;20098;-76
2023/08/07 05:46:50;;;;;;;0.70;0.70;;;14.40;99.90;;;;;;5056378;28;20479;-75
2023/08/07 05:49:16;;;;;;;0.35;0.35;;;14.40;99.90;;;;;;5056737;28;20017;-76
2023/08/07 05:51:42;;;;;;;0.38;0.38;;;14.50;99.90;;;;;;5056291;28;20017;-75
2023/08/07 05:54:08;;;;;;;0.28;0.28;;;14.40;99.90;;;;;;5056514;28;20041;-77
2023/08/07 05:56:34;;;;;;;0.00;0.00;;;14.60;99.90;;;;;;5055992;28;20021;-76
2023/08/07 05:59:00;;;;;;;0.38;0.38;;;15.00;99.90;;;;;;5056597;28;20066;-75
2023/08/07 06:01:32;;;;;;;0.10;0.10;;;15.30;99.90;;;;;;5056339;28;20064;-75
2023/08/07 06:03:57;;;;;;;;;;;15.00;99.90;;;;;;5056805;28;20029;-76
2023/08/07 06:06:25;;;;;;;1.38;0.45;;;14.90;99.90;;;;;;5056268;28;19909;-75
2023/08/07 06:08:51;;;;;;;0.08;0.08;;;15.00;99.90;;;;;;5038456;28;20465;-74
2023/08/07 06:11:17;;;;;;;1.20;0.60;;;15.10;99.90;;;;;;5055944;28;20036;-74
2023/08/07 06:13:43;;;;;;;0.55;0.32;;;15.00;99.90;;;;;;5056091;28;20017;-75
2023/08/07 06:16:09;;;;;;;0.28;0.22;;;15.00;99.90;;;;;;5056117;28;20039;-75
2023/08/07 06:18:36;;;;;;;0.50;0.50;;;15.50;99.90;;;;;;5056210;28;20037;-75
2023/08/07 06:21:04;;;;;;;0.10;0.10;;;15.40;99.90;;;;;;5055720;28;20515;-76
2023/08/07 06:23:30;;;;;;;4.00;1.33;;;15.30;99.90;;;;;;5055888;28;20045;-76
2023/08/07 06:25:57;;;;;;;0.40;0.30;;;15.40;99.90;;;;;;5055619;28;20021;-75
2023/08/07 06:28:23;;;;;;;0.10;0.10;;;15.50;99.90;;;;;;5021978;28;20115;-76
2023/08/07 06:30:48;;;;;;;0.22;0.22;;;15.90;99.90;;;;;;5055745;28;20188;-75
2023/08/07 06:33:14;;;;;;;0.00;0.00;;;15.90;99.90;;;;;;5055817;28;20057;-78
2023/08/07 06:35:42;;;;;;;0.30;0.30;;;15.90;99.90;;;;;;5038038;28;20029;-74
2023/08/07 06:38:08;;;;;;;22.10;1.67;;;16.10;99.90;;;;;;5055781;28;20483;-74
2023/08/07 06:40:37;;;;;;;0.43;0.43;;;16.30;99.90;;;;;;5055363;28;20021;-74
2023/08/07 06:43:03;;;;;;;1.48;0.80;;;16.00;99.90;;;;;;5055554;28;20124;-74
2023/08/07 06:45:29;;;;;;;0.50;0.45;;;16.00;99.90;;;;;;5055451;28;20540;-74
2023/08/07 06:47:56;;;;;;;0.40;0.40;;;15.90;99.90;;;;;;5031217;28;20029;-75
2023/08/07 06:50:21;;;;;;;10.73;0.30;;;15.80;99.90;;;;;;5037779;28;20032;-75
2023/08/07 06:52:47;;;;;;;10.68;1.02;;;15.80;99.90;;;;;;5050678;28;20021;-75
2023/08/07 06:55:13;;;;;;;0.47;0.38;;;15.60;99.90;;;;;;5036390;28;20053;-74
2023/08/07 06:57:39;;;;;;;1.05;0.47;;;15.50;99.90;;;;;;5053915;28;20021;-74
2023/08/07 07:00:06;;;;;;;0.82;0.70;;;15.50;99.90;;;;;;5054316;28;20484;-74
2023/08/07 07:02:32;;;;;;;4.18;0.90;;;15.70;99.90;;;;;;5054504;28;20029;-74
2023/08/07 07:04:58;;;;;;;0.55;0.40;;;15.50;99.90;;;;;;5054119;28;20120;-74
2023/08/07 07:07:23;;;;;;;0.10;0.10;;;15.60;99.90;;;;;;5054354;28;20025;-74
2023/08/07 07:09:49;;;;;;;4.40;2.20;;;15.70;99.90;;;;;;5053977;28;20024;-75
2023/08/07 07:12:15;;;;;;;0.15;0.15;;;15.80;99.90;;;;;;5053550;28;20021;-75
2023/08/07 07:14:41;;;;;;;0.65;0.60;;;15.80;99.90;;;;;;5053941;28;20108;-74
2023/08/07 07:17:07;;;;;;;0.15;0.13;;;15.80;99.90;;;;;;5054092;28;20477;-74
2023/08/07 07:19:33;;;;;;;0.08;0.08;;;15.90;99.90;;;;;;5029099;28;20024;-75
2023/08/07 07:21:59;;;;;;;0.20;0.20;;;15.90;99.90;;;;;;5053232;28;20045;-74
2023/08/07 07:24:25;;;;;;;0.55;0.50;;;16.10;99.90;;;;;;5053750;28;20377;-74
2023/08/07 07:26:51;;;;;;;1.70;1.05;;;16.10;99.90;;;;;;5054070;28;20041;-74
2023/08/07 07:29:18;;;;;;;2.78;0.88;;;16.10;99.90;;;;;;5053595;28;20063;-75
2023/08/07 07:31:44;;;;;;;0.40;0.40;;;16.20;99.90;;;;;;5054304;28;20106;-74
2023/08/07 07:34:10;;;;;;;0.20;0.20;;;16.40;99.90;;;;;;5053513;28;20037;-74
2023/08/07 07:36:36;;;;;;;2.40;0.93;;;16.60;99.90;;;;;;5053752;28;20042;-74
2023/08/07 07:39:01;;;;;;;0.52;0.40;;;16.70;99.90;;;;;;5053226;28;20063;-74
2023/08/07 07:41:28;;;;;;;1.88;1.02;;;16.80;99.90;;;;;;5053583;28;20436;-74
2023/08/07 07:43:53;;;;;;;1.00;0.60;;;16.80;99.90;;;;;;5053387;28;20016;-74
2023/08/07 07:46:19;;;;;;;4.05;1.20;;;16.60;99.90;;;;;;5052730;28;20029;-74
2023/08/07 07:48:45;;;;;;;7.32;0.43;;;16.30;99.90;;;;;;5045513;28;20470;-74
2023/08/07 07:51:11;;;;;;;11.13;0.75;;;16.30;99.90;;;;;;5040730;28;20021;-74
2023/08/07 07:53:36;;;;;;;1.38;0.85;;;16.20;99.90;;;;;;5053172;28;20047;-74
2023/08/07 07:56:02;;;;;;;0.93;0.65;;;16.40;99.90;;;;;;5034563;28;20566;-74
2023/08/07 07:58:28;;;;;;;1.45;1.10;;;16.60;99.90;;;;;;5053732;28;20476;-74
2023/08/07 08:00:54;;;;;;;4.85;1.35;;;17.00;99.90;;;;;;5053992;28;20040;-74
2023/08/07 08:03:23;;;;;;;0.88;0.88;;;17.10;99.90;;;;;;5051931;28;20102;-74
2023/08/07 08:05:51;;;;;;;6.53;1.13;;;17.30;99.90;;;;;;5053414;28;20032;-74
2023/08/07 08:08:17;;;;;;;0.80;0.43;;;17.50;99.90;;;;;;5052648;28;20126;-74
2023/08/07 08:10:44;;;;;;;3.35;0.75;;;17.00;99.90;;;;;;5053974;28;20025;-73
2023/08/07 08:13:10;;;;;;;0.22;0.08;;;16.80;99.90;;;;;;5053655;28;20032;-74
2023/08/07 08:15:36;;;;;;;0.60;0.60;;;17.00;99.90;;;;;;5053846;28;20027;-72
2023/08/07 08:18:01;;;;;;;0.73;0.70;;;17.20;99.90;;;;;;5053603;28;20444;-73
2023/08/07 08:20:29;;;;;;;0.88;0.82;;;17.40;99.90;;;;;;5053628;28;20028;-73
2023/08/07 08:22:55;;;;;;;0.63;0.40;;;17.60;99.90;;;;;;5053361;28;20029;-73
2023/08/07 08:25:21;;;;;;;4.78;1.45;;;18.00;99.90;;;;;;5053777;28;20048;-73
2023/08/07 08:27:47;;;;;;;5.63;1.10;;;17.80;99.90;;;;;;5053543;28;20108;-75
2023/08/07 08:30:13;;;;;;;0.98;0.60;;;17.70;99.90;;;;;;5053637;28;20036;-74
2023/08/07 08:32:39;;;;;;;0.63;0.63;;;17.60;99.90;;;;;;5053253;28;20387;-74
2023/08/07 08:35:05;;;;;;;1.95;1.00;;;17.50;99.90;;;;;;5053428;28;20032;-74
2023/08/07 08:37:31;;;;;;;0.22;0.22;;;17.50;99.90;;;;;;5053189;28;20029;-74
2023/08/07 08:39:57;;;;;;;0.20;0.20;;;17.50;99.90;;;;;;5053420;28;20519;-74
2023/08/07 08:42:23;;;;;;;3.55;1.42;;;17.70;99.90;;;;;;5053299;28;20044;-74
2023/08/07 08:44:54;;;;;;;0.57;0.57;;;18.10;99.90;;;;;;5053185;28;20021;-79
2023/08/07 08:47:26;;;;;;;17.63;0.97;;;18.00;99.90;;;;;;5035271;28;20024;-74
2023/08/07 08:50:02;;;;;;;1.00;0.80;;;17.90;99.90;;;;;;5052936;28;20280;-74
2023/08/07 08:52:28;;;;;;;0.50;0.47;;;17.70;99.90;;;;;;5035284;28;20496;-74
2023/08/07 08:54:57;;;;;;;0.70;0.55;;;17.70;99.90;;;;;;5053041;28;20025;-73
2023/08/07 08:57:23;;;;;;;0.55;0.38;;;17.80;99.90;;;;;;5053148;28;20035;-74
2023/08/07 08:59:50;;;;;;;0.00;0.00;;;17.80;99.90;;;;;;5052750;28;20028;-74
2023/08/07 09:02:17;;;;;;;0.20;0.20;;;18.00;99.90;;;;;;5053113;28;20382;-74
2023/08/07 09:04:44;;;;;;;0.50;0.50;;;18.30;99.90;;;;;;5052431;28;20029;-74
2023/08/07 09:07:13;;;;;;;7.45;0.98;;;18.20;99.90;;;;;;5018913;28;20029;-74
2023/08/07 09:09:40;;;;;;;0.25;0.25;;;17.80;99.90;;;;;;5042850;28;20028;-75
2023/08/07 09:12:11;;;;;;;4.30;0.30;;;17.60;99.90;;;;;;5032841;28;20488;-74
2023/08/07 09:14:41;;;;;;;2.13;1.23;;;18.00;99.90;;;;;;5031067;28;20025;-74
2023/08/07 09:17:07;;;;;;;1.85;0.85;;;18.30;99.90;;;;;;5052285;28;20370;-74
2023/08/07 09:19:33;;;;;;;11.60;1.48;;;18.70;99.90;;;;;;5051169;28;20075;-74
2023/08/07 09:21:59;;;;;;;2.35;0.95;;;18.60;99.90;;;;;;5051800;28;20516;-74
2023/08/07 09:24:24;;;;;;;0.80;0.30;;;18.40;99.90;;;;;;5049188;28;20021;-74
2023/08/07 09:26:55;;;;;;;0.65;0.40;;;18.40;99.90;;;;;;5052029;28;20591;-74
2023/08/07 09:29:22;;;;;;;1.38;0.55;;;18.80;99.90;;;;;;5049982;28;20049;-74
2023/08/07 09:31:48;;;;;;;0.38;0.28;;;18.90;99.90;;;;;;5041571;28;20100;-74
2023/08/07 09:34:17;;;;;;;0.63;0.40;;;18.90;99.90;;;;;;5047631;28;20519;-73
2023/08/07 09:36:43;;;;;;;0.17;0.17;;;18.80;99.90;;;;;;5051675;28;20021;-74
2023/08/07 09:39:10;;;;;;;0.50;0.50;;;19.40;99.90;;;;;;5051655;28;20487;-75
2023/08/07 09:41:36;;;;;;;1.27;0.63;;;19.30;99.90;;;;;;5043088;28;20033;-74
2023/08/07 09:44:09;;;;;;;4.55;1.90;;;19.00;99.90;;;;;;5045998;28;20029;-74
2023/08/07 09:46:44;;;;;;;0.63;0.40;;;19.00;99.90;;;;;;5051228;28;20103;-74
2023/08/07 09:49:10;;;;;;;0.73;0.28;;;19.30;99.90;;;;;;5051577;28;20023;-74
2023/08/07 09:51:43;;;;;;;0.20;0.20;;;19.40;99.90;;;;;;5051159;28;20033;-74
2023/08/07 09:54:09;;;;;;;3.30;0.35;;;19.70;99.90;;;;;;5051661;28;20469;-74
2023/08/07 09:56:35;;;;;;;0.50;0.35;;;19.90;99.90;;;;;;5051005;28;20017;-73
2023/08/07 09:59:01;;;;;;;0.20;0.20;;;19.50;99.90;;;;;;5051697;28;20527;-73
2023/08/07 10:01:27;;;;;;;2.10;0.75;;;19.30;99.90;;;;;;5015714;28;20021;-73
2023/08/07 10:03:54;;;;;;;1.45;0.32;;;19.30;99.90;;;;;;5051194;28;20445;-73
2023/08/07 10:06:20;;;;;;;0.00;0.00;;;19.30;99.90;;;;;;5051084;28;20535;-74
2023/08/07 10:08:46;;;;;;;0.10;0.10;;;19.30;99.90;;;;;;5051089;28;20083;-74
2023/08/07 10:11:14;;;;;;;0.20;0.20;;;19.30;99.90;;;;;;5049283;28;20392;-73
2023/08/07 10:13:41;;;;;;;4.78;1.35;;;19.60;99.90;;;;;;5051071;28;20056;-74
2023/08/07 10:16:07;;;;;;;1.95;0.38;;;19.70;99.90;;;;;;5051248;28;20021;-73
2023/08/07 10:18:34;;;;;;;0.17;0.17;;;19.40;99.90;;;;;;5042245;28;20034;-73
2023/08/07 10:21:02;;;;;;;0.98;0.73;;;19.50;99.90;;;;;;5050853;28;20021;-73
2023/08/07 10:23:28;;;;;;;2.28;0.80;;;19.40;99.90;;;;;;5050872;28;20424;-73
2023/08/07 10:25:54;;;;;;;0.05;0.05;;;19.50;99.90;;;;;;5050868;28;20028;-73
2023/08/07 10:28:24;;;;;;;0.10;0.10;;;19.10;99.90;;;;;;5051310;28;20116;-74
2023/08/07 10:30:51;;;;;;;0.73;0.30;;;19.60;99.90;;;;;;5038588;28;20030;-73
2023/08/07 10:33:20;;;;;;;4.55;0.77;;;19.80;99.90;;;;;;5053201;28;20032;-74
2023/08/07 10:35:48;;;;;;;0.00;0.00;;;19.50;99.90;;;;;;5036499;28;20477;-73
2023/08/07 10:38:14;;;;;;;1.35;0.30;;;19.80;99.90;;;;;;5055668;28;20546;-74
2023/08/07 10:41:14;;;;;;;0.68;0.57;;;19.40;99.90;;;;;;5054310;28;20392;-73
2023/08/07 10:43:44;;;;;;;1.38;1.02;;;19.10;99.90;;;;;;5045302;28;20131;-73
2023/08/07 10:46:20;;;;;;;5.70;1.40;;;19.50;99.90;;;;;;5037153;28;20032;-74
2023/08/07 10:48:53;;;;;;;0.30;0.30;;;19.90;99.90;;;;;;5055517;28;20429;-73
2023/08/07 10:51:19;;;;;;;0.52;0.45;;;19.90;99.90;;;;;;5055348;28;20116;-73
2023/08/07 10:53:47;;;;;;;0.75;0.25;;;19.70;99.90;;;;;;5055223;28;20545;-73
2023/08/07 10:56:20;;;;;;;2.35;0.70;;;20.20;99.90;;;;;;5055008;28;20028;-73
2023/08/07 10:58:55;;;;;;;0.73;0.20;;;20.10;99.90;;;;;;5037332;28;20104;-74
2023/08/07 11:01:26;;;;;;;0.20;0.20;;;20.70;99.90;;;;;;5054892;28;20068;-73
2023/08/07 11:03:56;;;;;;;;;;;20.70;99.90;;;;;;5055492;28;20021;-73
2023/08/07 11:06:26;;;;;;;0.55;0.45;;;20.20;99.90;;;;;;5055160;28;19915;-73
2023/08/07 11:08:52;;;;;;;4.30;1.00;;;20.30;99.90;;;;;;5054803;28;20028;-73
2023/08/07 11:11:19;;;;;;;0.50;0.45;;;20.30;99.90;;;;;;5055186;28;20025;-73
2023/08/07 11:13:45;;;;;;;1.60;0.57;;;19.90;99.90;;;;;;5036716;28;20021;-74
2023/08/07 11:16:12;;;;;;;0.75;0.20;;;20.00;99.90;;;;;;5054742;28;20175;-73
2023/08/07 11:18:41;;;;;;;0.68;0.47;;;20.90;99.90;;;;;;5055066;28;20029;-73
2023/08/07 11:21:11;;;;;;;0.50;0.50;;;21.50;99.90;;;;;;5054591;28;20052;-73
2023/08/07 11:23:40;;;;;;;0.00;0.00;;;21.00;99.90;;;;;;5054641;28;20064;-73
2023/08/07 11:26:08;;;;;;;0.52;0.52;;;20.80;99.90;;;;;;5054759;28;20057;-73
2023/08/07 11:28:34;;;;;;;0.95;0.30;;;21.20;99.90;;;;;;5036918;28;20028;-74
2023/08/07 11:31:00;;;;;;;1.58;0.52;;;21.60;99.10;;;;;;5054302;28;20492;-73
2023/08/07 11:33:27;;;;;;;0.10;0.10;;;22.10;98.10;;;;;;5054932;28;20362;-74
2023/08/07 11:35:54;;;;;;;0.10;0.10;;;22.30;97.10;;;;;;5036688;28;20041;-73
2023/08/07 11:38:45;;;;;;;0.22;0.22;;;21.30;99.20;;;;;;5054711;28;20033;-73
2023/08/07 11:41:13;;;;;;;0.93;0.38;;;21.20;99.50;;;;;;5054573;28;20039;-73
2023/08/07 11:43:39;;;;;;;0.93;0.80;;;21.60;99.90;;;;;;5053181;28;20064;-73
2023/08/07 11:46:07;;;;;;;0.63;0.43;;;22.00;98.00;;;;;;5053650;28;20096;-73
2023/08/07 11:48:34;;;;;;;2.00;0.57;;;21.80;98.60;;;;;;5054255;28;20095;-73
2023/08/07 11:51:01;;;;;;;0.35;0.28;;;21.80;98.70;;;;;;5054113;28;20025;-73
2023/08/07 11:53:29;;;;;;;0.00;0.00;;;20.80;99.90;;;;;;5036434;28;20047;-73
2023/08/07 11:56:00;;;;;;;0.70;0.55;;;20.30;99.90;;;;;;5054059;28;20107;-74
2023/08/07 11:58:48;;;;;;;0.08;0.08;;;20.90;99.90;;;;;;5054099;28;20025;-73
2023/08/07 12:01:19;;;;;;;0.45;0.25;;;21.60;99.90;;;;;;5054058;28;20103;-73
2023/08/07 12:03:56;;;;;;;0.28;0.28;;;20.50;99.90;;;;;;5054880;28;20028;-73
2023/08/07 12:06:23;;;;;;;0.10;0.10;;;20.40;99.90;;;;;;5038126;28;20052;-73
2023/08/07 12:08:53;;;;;;;3.92;0.40;;;20.80;99.90;;;;;;5053940;28;20059;-74
2023/08/07 12:11:20;;;;;;;4.13;1.38;;;21.50;99.90;;;;;;5053858;28;20036;-74
2023/08/07 12:13:47;;;;;;;0.17;0.17;;;22.10;99.90;;;;;;5053308;28;20082;-74
2023/08/07 12:16:15;;;;;;;0.10;0.10;;;22.00;99.90;;;;;;5054141;28;20028;-73
2023/08/07 12:18:52;;;;;;;0.10;0.10;;;22.70;99.90;;;;;;5053802;28;20036;-74
2023/08/07 12:21:25;;;;;;;0.30;0.30;;;23.00;99.30;;;;;;5035895;28;20100;-73
2023/08/07 12:23:54;;;;;;;0.30;0.30;;;21.90;99.90;;;;;;5053354;28;20044;-73
2023/08/07 12:26:20;;;;;;;0.63;0.22;;;20.80;99.90;;;;;;5053810;28;20060;-73
2023/08/07 12:28:46;;;;;;;0.00;0.00;;;20.50;99.90;;;;;;5053436;28;20421;-73
2023/08/07 12:31:12;;;;;;;0.28;0.28;;;20.70;99.90;;;;;;5053716;28;20021;-73
2023/08/07 12:33:38;;;;;;;0.65;0.65;;;21.50;99.90;;;;;;5035660;28;20074;-73
2023/08/07 12:36:04;;;;;;;0.38;0.38;;;22.30;99.90;;;;;;5053562;28;20112;-73
2023/08/07 12:38:30;;;;;;;1.02;0.70;;;22.70;98.80;;;;;;5053620;28;20031;-72
2023/08/07 12:40:56;;;;;;;0.40;0.32;;;22.60;99.20;;;;;;5053232;28;20043;-73
2023/08/07 12:43:22;;;;;;;0.30;0.30;;;22.70;98.10;;;;;;5042464;28;20032;-73
2023/08/07 12:45:48;;;;;;;1.60;0.43;;;22.50;99.30;;;;;;5052450;28;20029;-73
2023/08/07 12:48:14;;;;;;;0.15;0.10;;;22.70;99.90;;;;;;5052217;28;20035;-73